»·PEaware :: DCM3021 KLAS-KPSP

DCM3021 :: KLAS-KPSP

FLIGHT INFORMATION

Flight Status: Arrived
Operator: DotCom
More flights by this operator :: More flights under this callsign
Pilot: James C. (15816)
Aircraft: CESSNA 510 CITATION MUSTANG
(C510)
More flights by this aircraft type
Origin: KLAS McCarran Intl
United States
Destination: KPSP Palm Springs Intl
United States
More flights between these airports :: More routes between these airports
Route: BOACH8 TNP SBONO1
File this flight plan on PilotEdge
Remarks:
Altitude:
(Current/Filed)
16,000ft
Speed:
(Current/Filed)
320kts
Departed: 10-Oct-18 12:57 PM
Arrived: 10-Oct-18 01:43 PM
Distance/Time
Traveled:
151nm/0:46
Distance/Time
To Go:
Arrived

Flight Plot

Page will automatically refresh every two minutes.

Flight plan parsing failed; only flown route is shown


Map Options




Map Legend


Flown Route
Filed Route
Departure Airport
Arrival Airport
Navaid (VOR, NDB)
Fix

Horizontal Profiles

Position Reports

Time Latitude Longitude Heading Altitude Ground
Speed
10-Oct-18 12:41 36.081917 -115.170819 180 2117ft 0kts
10-Oct-18 12:42 36.081917 -115.170819 180 2117ft 0kts
10-Oct-18 12:43 36.081917 -115.170819 180 2117ft 0kts
10-Oct-18 12:44 36.081917 -115.170819 180 2117ft 0kts
10-Oct-18 12:45 36.081917 -115.170819 180 2117ft 0kts
10-Oct-18 12:46 36.081917 -115.170819 180 2117ft 0kts
10-Oct-18 12:47 36.081917 -115.170819 180 2117ft 0kts
10-Oct-18 12:48 36.081917 -115.170819 180 2117ft 0kts
10-Oct-18 12:49 36.081917 -115.170819 180 2117ft 0kts
10-Oct-18 12:50 36.081917 -115.170819 180 2117ft 0kts
10-Oct-18 12:51 36.081917 -115.170819 180 2117ft 0kts
10-Oct-18 12:52 36.081662 -115.170622 117 2117ft 5kts
10-Oct-18 12:53 36.083127 -115.168139 19 2117ft 19kts
10-Oct-18 12:54 36.086858 -115.166057 26 2117ft 1kts
10-Oct-18 12:55 36.090317 -115.164095 25 2117ft 19kts
10-Oct-18 12:56 36.094279 -115.161854 22 2117ft 18kts
10-Oct-18 12:57 36.098864 -115.159214 26 2117ft 6kts
10-Oct-18 12:58 36.099792 -115.157183 118 2117ft 0kts
10-Oct-18 12:59 36.095546 -115.158694 206 2117ft 82kts
10-Oct-18 13:00 36.057767 -115.183194 202 3506ft 191kts
10-Oct-18 13:01 36.008854 -115.222484 232 5557ft 231kts
10-Oct-18 13:02 35.968052 -115.293391 212 7190ft 273kts
10-Oct-18 13:03 35.894672 -115.312997 183 9307ft 270kts
10-Oct-18 13:04 35.820257 -115.313323 175 11387ft 266kts
10-Oct-18 13:05 35.744954 -115.302729 176 12997ft 276kts
10-Oct-18 13:06 35.667529 -115.294759 182 14597ft 280kts
10-Oct-18 13:07 35.588766 -115.297676 186 15909ft 293kts
10-Oct-18 13:08 35.503163 -115.302373 187 15993ft 305kts
10-Oct-18 13:09 35.417893 -115.306953 186 15989ft 306kts
10-Oct-18 13:10 35.333929 -115.309495 184 15985ft 299kts
10-Oct-18 13:11 35.251431 -115.311657 185 15984ft 292kts
10-Oct-18 13:12 35.183591 -115.313985 185 15985ft 292kts
10-Oct-18 13:13 35.087757 -115.317886 186 15966ft 301kts
10-Oct-18 13:14 35.002527 -115.322036 185 15965ft 307kts
10-Oct-18 13:15 34.932283 -115.324250 185 15968ft 300kts
10-Oct-18 13:16 34.834848 -115.328651 186 15970ft 303kts
10-Oct-18 13:17 34.765363 -115.339066 199 15973ft 299kts
10-Oct-18 13:18 34.687288 -115.372863 204 15983ft 298kts
10-Oct-18 13:19 34.609373 -115.407920 203 15990ft 298kts
10-Oct-18 13:20 34.531246 -115.442649 203 15979ft 299kts
10-Oct-18 13:21 34.452981 -115.477158 203 15985ft 299kts
10-Oct-18 13:22 34.374427 -115.510610 202 15990ft 299kts
10-Oct-18 13:23 34.301987 -115.557467 222 15978ft 295kts
10-Oct-18 13:24 34.241749 -115.623671 224 14974ft 291kts
10-Oct-18 13:25 34.182849 -115.690340 224 13904ft 288kts
10-Oct-18 13:26 34.125741 -115.754662 224 13370ft 273kts
10-Oct-18 13:27 34.065467 -115.810025 214 12609ft 276kts
10-Oct-18 13:28 34.000329 -115.860973 214 11737ft 278kts
10-Oct-18 13:29 33.936583 -115.912061 214 11235ft 272kts
10-Oct-18 13:30 33.901016 -115.989180 257 10954ft 264kts
10-Oct-18 13:31 33.893510 -116.075846 264 10946ft 256kts
10-Oct-18 13:32 33.868851 -116.152422 218 10337ft 270kts
10-Oct-18 13:33 33.805402 -116.202783 211 8540ft 264kts
10-Oct-18 13:34 33.734952 -116.256011 211 7018ft 252kts
10-Oct-18 13:35 33.691987 -116.299057 231 6982ft 228kts
10-Oct-18 13:36 33.704851 -116.365694 309 6163ft 233kts
10-Oct-18 13:37 33.747629 -116.423486 312 4055ft 223kts
10-Oct-18 13:38 33.786832 -116.469566 325 1732ft 151kts
10-Oct-18 13:39 33.812917 -116.492776 320 707ft 109kts
10-Oct-18 13:40 33.835119 -116.512495 321 745ft 131kts
10-Oct-18 13:41 33.872036 -116.531518 46 2604ft 176kts
10-Oct-18 13:42 33.852918 -116.477742 136 2298ft 200kts
10-Oct-18 13:43 33.814059 -116.456017 220 1888ft 134kts
10-Oct-18 13:44 33.808470 -116.489447 332 928ft 102kts
10-Oct-18 13:45 33.827300 -116.505515 321 479ft 28kts
10-Oct-18 13:46 33.827898 -116.507154 188 479ft 0kts
10-Oct-18 13:47 33.827898 -116.507154 188 479ft 0kts
10-Oct-18 13:48 33.826254 -116.506826 185 479ft 17kts
10-Oct-18 13:49 33.825376 -116.509715 267 479ft 2kts
10-Oct-18 13:50 33.825375 -116.509802 270 479ft 0kts
10-Oct-18 13:51 33.825375 -116.509802 270 479ft 0kts
10-Oct-18 13:52 33.825375 -116.509802 270 479ft 0kts
10-Oct-18 13:53 33.825375 -116.509802 270 479ft 0kts

Navigation Log

Ident Type
Flight plan parsing failed, navigation log unavailable